Time;durP1;ratioP1;P1;durP2;ratioP2;P2;SDS_P1;SDS_P2;PMS_P1;PMS_P2;Temp;Humidity;BMP_temperature;BMP_pressure;BME280_temperature;BME280_humidity;BME280_pressure;Samples;Min_cycle;Max_cycle;Signal;HPM_P1;HPM_P2
2021/03/29 00:01:41;;;;;;;9.73;7.93;;;;;;;;;;5047560;28;20447;-65
2021/03/29 00:04:07;;;;;;;9.27;7.90;;;;;;;;;;5051843;28;20447;-65
2021/03/29 00:06:35;;;;;;;13.30;7.30;;;;;;;;;;5051141;28;20835;-66
2021/03/29 00:09:02;;;;;;;13.73;7.70;;;;;;;;;;5052483;28;20463;-65
2021/03/29 00:11:30;;;;;;;8.00;7.13;;;;;;;;;;5050958;28;20501;-65
2021/03/29 00:13:57;;;;;;;9.60;7.37;;;;;;;;;;5052520;28;20539;-65
2021/03/29 00:16:25;;;;;;;12.83;7.03;;;;;;;;;;5043914;28;20444;-66
2021/03/29 00:18:51;;;;;;;11.90;8.03;;;;;;;;;;5051546;28;20499;-65
2021/03/29 00:21:18;;;;;;;10.13;6.67;;;;;;;;;;5050725;28;20547;-66
2021/03/29 00:23:45;;;;;;;8.17;6.47;;;;;;;;;;5051127;28;20521;-65
2021/03/29 00:26:12;;;;;;;9.30;6.57;;;;;;;;;;5043741;28;20475;-67
2021/03/29 00:28:39;;;;;;;12.47;7.00;;;;;;;;;;5031225;28;20472;-66
2021/03/29 00:31:08;;;;;;;9.80;6.87;;;;;;;;;;5039071;28;20451;-65
2021/03/29 00:33:35;;;;;;;10.67;6.63;;;;;;;;;;5049357;28;20452;-65
2021/03/29 00:36:02;;;;;;;10.20;7.20;;;;;;;;;;5050154;28;20726;-65
2021/03/29 00:38:30;;;;;;;11.00;6.60;;;;;;;;;;5051180;28;20443;-65
2021/03/29 00:40:59;;;;;;;9.10;6.73;;;;;;;;;;5048613;28;20480;-65
2021/03/29 00:43:28;;;;;;;11.33;6.97;;;;;;;;;;5050852;28;20947;-65
2021/03/29 00:45:56;;;;;;;9.67;6.23;;;;;;;;;;5050480;28;20460;-66
2021/03/29 00:48:24;;;;;;;8.07;6.00;;;;;;;;;;5037534;28;20439;-67
2021/03/29 00:50:52;;;;;;;11.77;6.63;;;;;;;;;;5049730;28;21185;-66
2021/03/29 00:53:19;;;;;;;7.17;5.97;;;;;;;;;;5050838;28;20451;-66
2021/03/29 00:55:47;;;;;;;9.43;6.20;;;;;;;;;;5050115;28;20836;-66
2021/03/29 00:58:14;;;;;;;9.60;6.60;;;;;;;;;;5050455;28;20448;-66
2021/03/29 01:00:42;;;;;;;7.60;6.40;;;;;;;;;;5049685;28;20513;-66
2021/03/29 01:03:13;;;;;;;10.17;6.23;;;;;;;;;;5041165;28;20494;-67
2021/03/29 01:05:40;;;;;;;8.70;5.80;;;;;;;;;;5045438;28;20536;-66
2021/03/29 01:08:07;;;;;;;10.63;5.83;;;;;;;;;;5047805;28;20447;-66
2021/03/29 01:10:34;;;;;;;7.87;5.70;;;;;;;;;;5050739;28;20464;-65
2021/03/29 01:13:03;;;;;;;9.70;6.13;;;;;;;;;;5049566;28;20448;-65
2021/03/29 01:15:30;;;;;;;10.77;6.20;;;;;;;;;;5050757;28;20527;-66
2021/03/29 01:17:57;;;;;;;7.43;6.27;;;;;;;;;;5049119;28;20877;-65
2021/03/29 01:20:33;;;;;;;8.20;6.10;;;;;;;;;;5030525;28;578251;-65
2021/03/29 01:23:00;;;;;;;9.87;6.80;;;;;;;;;;5049313;28;20686;-66
2021/03/29 01:25:29;;;;;;;11.13;6.70;;;;;;;;;;5042084;28;20869;-65
2021/03/29 01:27:59;;;;;;;8.47;6.90;;;;;;;;;;5034382;28;20457;-67
2021/03/29 01:30:27;;;;;;;8.60;6.10;;;;;;;;;;5042379;28;20486;-66
2021/03/29 01:32:53;;;;;;;11.07;7.10;;;;;;;;;;5053047;28;20564;-64
2021/03/29 01:35:22;;;;;;;7.43;5.80;;;;;;;;;;5054905;28;20459;-66
2021/03/29 01:37:49;;;;;;;11.53;6.80;;;;;;;;;;5054769;28;20456;-65
2021/03/29 01:40:17;;;;;;;7.67;6.60;;;;;;;;;;5054093;28;20490;-65
2021/03/29 01:42:44;;;;;;;9.10;6.90;;;;;;;;;;5054332;28;20447;-65
2021/03/29 01:45:12;;;;;;;9.70;7.23;;;;;;;;;;5053791;28;20455;-65
2021/03/29 01:47:40;;;;;;;9.50;6.70;;;;;;;;;;5053059;28;20876;-64
2021/03/29 01:50:08;;;;;;;9.60;6.67;;;;;;;;;;5053727;28;20986;-64
2021/03/29 01:52:34;;;;;;;9.00;7.30;;;;;;;;;;5054491;28;20546;-65
2021/03/29 01:55:01;;;;;;;7.90;7.00;;;;;;;;;;5053714;28;20915;-66
2021/03/29 01:57:28;;;;;;;14.40;8.13;;;;;;;;;;5054688;28;20625;-64
2021/03/29 01:59:54;;;;;;;8.20;7.07;;;;;;;;;;5041389;28;20542;-65
2021/03/29 02:02:22;;;;;;;9.77;6.67;;;;;;;;;;5047401;28;20883;-65
2021/03/29 02:04:50;;;;;;;7.67;6.87;;;;;;;;;;5055026;28;20542;-65
2021/03/29 02:07:17;;;;;;;8.80;7.20;;;;;;;;;;5053221;28;20978;-66
2021/03/29 02:09:45;;;;;;;11.67;7.93;;;;;;;;;;5054724;28;20464;-65
2021/03/29 02:12:12;;;;;;;9.43;6.93;;;;;;;;;;5054477;28;20534;-66
2021/03/29 02:14:39;;;;;;;11.87;7.27;;;;;;;;;;5054117;28;20444;-65
2021/03/29 02:17:06;;;;;;;14.87;7.60;;;;;;;;;;5053999;28;20459;-65
2021/03/29 02:19:35;;;;;;;8.30;7.10;;;;;;;;;;5047088;28;20570;-66
2021/03/29 02:22:02;;;;;;;10.23;7.40;;;;;;;;;;5041055;28;20522;-66
2021/03/29 02:24:29;;;;;;;9.00;7.50;;;;;;;;;;5037781;28;20451;-65
2021/03/29 02:26:56;;;;;;;10.40;7.10;;;;;;;;;;5053392;28;20497;-66
2021/03/29 02:29:27;;;;;;;10.20;7.30;;;;;;;;;;5053841;28;20483;-65
2021/03/29 02:31:53;;;;;;;10.20;7.30;;;;;;;;;;5054104;28;20440;-66
2021/03/29 02:34:20;;;;;;;8.80;6.77;;;;;;;;;;5053632;28;20451;-65
2021/03/29 02:36:48;;;;;;;10.20;7.00;;;;;;;;;;5053490;28;20452;-65
2021/03/29 02:39:15;;;;;;;7.70;6.50;;;;;;;;;;5045670;28;20488;-65
2021/03/29 02:41:41;;;;;;;10.50;7.30;;;;;;;;;;5053178;28;20493;-66
2021/03/29 02:44:08;;;;;;;13.60;7.40;;;;;;;;;;5052582;28;20459;-65
2021/03/29 02:46:35;;;;;;;9.30;6.90;;;;;;;;;;5053064;28;20463;-65
2021/03/29 02:49:03;;;;;;;10.33;7.70;;;;;;;;;;5052797;28;20994;-65
2021/03/29 02:51:31;;;;;;;8.70;7.00;;;;;;;;;;5053447;28;20448;-65
2021/03/29 02:54:00;;;;;;;7.93;7.10;;;;;;;;;;5053619;28;20452;-67
2021/03/29 02:56:28;;;;;;;8.63;7.73;;;;;;;;;;5052645;28;20448;-65
2021/03/29 02:58:56;;;;;;;9.70;7.97;;;;;;;;;;5045695;28;20563;-65
2021/03/29 03:01:24;;;;;;;8.80;7.90;;;;;;;;;;5051767;28;20449;-65
2021/03/29 03:03:52;;;;;;;8.57;7.40;;;;;;;;;;5053170;28;20458;-65
2021/03/29 03:06:19;;;;;;;8.33;6.80;;;;;;;;;;5053223;28;20489;-66
2021/03/29 03:08:46;;;;;;;9.40;8.07;;;;;;;;;;5053536;28;20467;-67
2021/03/29 03:11:14;;;;;;;11.17;7.70;;;;;;;;;;5053037;28;20783;-66
2021/03/29 03:13:43;;;;;;;10.40;7.80;;;;;;;;;;5033026;28;20477;-65
2021/03/29 03:16:10;;;;;;;7.63;6.93;;;;;;;;;;5050634;28;20461;-65
2021/03/29 03:18:37;;;;;;;11.63;7.30;;;;;;;;;;5051106;28;20796;-65
2021/03/29 03:21:03;;;;;;;7.43;6.73;;;;;;;;;;5052825;28;21077;-65
2021/03/29 03:23:30;;;;;;;10.37;7.30;;;;;;;;;;5052879;28;20530;-65
2021/03/29 03:25:57;;;;;;;10.57;7.53;;;;;;;;;;5052171;28;20534;-65
2021/03/29 03:28:26;;;;;;;8.50;7.10;;;;;;;;;;5052108;28;21032;-66
2021/03/29 03:30:53;;;;;;;8.70;7.40;;;;;;;;;;5053120;28;20444;-67
2021/03/29 03:33:21;;;;;;;11.40;6.60;;;;;;;;;;5052644;28;20455;-65
2021/03/29 03:35:48;;;;;;;8.20;7.17;;;;;;;;;;5052957;28;20547;-68
2021/03/29 03:38:16;;;;;;;8.70;7.13;;;;;;;;;;5052629;28;20462;-66
2021/03/29 03:40:44;;;;;;;11.03;7.53;;;;;;;;;;5050347;28;20937;-67
2021/03/29 03:43:12;;;;;;;11.43;7.70;;;;;;;;;;5051977;28;20458;-66
2021/03/29 03:45:42;;;;;;;10.13;7.63;;;;;;;;;;5052528;28;20503;-68
2021/03/29 03:48:09;;;;;;;7.53;6.83;;;;;;;;;;5052226;28;20501;-66
2021/03/29 03:50:36;;;;;;;10.20;7.17;;;;;;;;;;5052310;28;20551;-67
2021/03/29 03:53:03;;;;;;;8.57;7.60;;;;;;;;;;5051965;28;20493;-67
2021/03/29 03:55:30;;;;;;;9.60;8.10;;;;;;;;;;5050053;28;20531;-67
2021/03/29 03:57:57;;;;;;;9.10;7.53;;;;;;;;;;5051933;28;20531;-67
2021/03/29 04:00:25;;;;;;;10.03;7.80;;;;;;;;;;5051779;28;20854;-67
2021/03/29 04:02:54;;;;;;;10.17;7.70;;;;;;;;;;5051624;28;20455;-67
2021/03/29 04:05:21;;;;;;;10.10;7.13;;;;;;;;;;5052356;28;20452;-67
2021/03/29 04:07:49;;;;;;;9.40;7.80;;;;;;;;;;5052338;28;20456;-67
2021/03/29 04:10:19;;;;;;;8.70;7.90;;;;;;;;;;5051237;28;20525;-67
2021/03/29 04:12:50;;;;;;;12.90;7.80;;;;;;;;;;5047187;28;21046;-66
2021/03/29 04:15:17;;;;;;;8.50;7.60;;;;;;;;;;5032616;28;20494;-67
2021/03/29 04:17:44;;;;;;;11.17;7.70;;;;;;;;;;5036316;28;20452;-67
2021/03/29 04:20:12;;;;;;;8.03;7.00;;;;;;;;;;5051749;28;20537;-67
2021/03/29 04:22:39;;;;;;;7.40;6.70;;;;;;;;;;5049597;28;20460;-68
2021/03/29 04:25:06;;;;;;;9.13;6.77;;;;;;;;;;5035146;28;20471;-67
2021/03/29 04:27:33;;;;;;;11.07;7.70;;;;;;;;;;5033241;28;20456;-67
2021/03/29 04:30:00;;;;;;;9.57;7.10;;;;;;;;;;5051509;28;20472;-66
2021/03/29 04:32:26;;;;;;;7.50;6.77;;;;;;;;;;5051786;28;21030;-67
2021/03/29 04:34:53;;;;;;;7.40;6.70;;;;;;;;;;5051377;28;20847;-67
2021/03/29 04:37:21;;;;;;;11.10;7.27;;;;;;;;;;5050742;28;22294;-67
2021/03/29 04:39:47;;;;;;;8.27;7.40;;;;;;;;;;5050510;28;20571;-68
2021/03/29 04:42:14;;;;;;;11.70;8.00;;;;;;;;;;5051362;28;20795;-66
2021/03/29 04:44:41;;;;;;;14.47;7.50;;;;;;;;;;5051083;28;20448;-67
2021/03/29 04:47:07;;;;;;;12.07;7.47;;;;;;;;;;5051533;28;20451;-68
2021/03/29 04:49:35;;;;;;;8.77;6.93;;;;;;;;;;5051062;28;20459;-67
2021/03/29 04:52:02;;;;;;;9.37;7.13;;;;;;;;;;5051927;28;20463;-66
2021/03/29 04:54:30;;;;;;;12.10;8.17;;;;;;;;;;5049361;28;20539;-67
2021/03/29 04:56:56;;;;;;;10.57;6.63;;;;;;;;;;5051228;28;20455;-66
2021/03/29 04:59:23;;;;;;;9.03;7.20;;;;;;;;;;5049797;28;20480;-67
2021/03/29 05:01:50;;;;;;;9.20;7.50;;;;;;;;;;5051438;28;20451;-68
2021/03/29 05:04:16;;;;;;;12.57;7.40;;;;;;;;;;5050877;28;20820;-66
2021/03/29 05:06:44;;;;;;;9.53;6.93;;;;;;;;;;5052212;28;20455;-67
2021/03/29 05:09:10;;;;;;;9.60;6.63;;;;;;;;;;5047915;28;21003;-67
2021/03/29 05:11:46;;;;;;;11.73;7.00;;;;;;;;;;5055076;28;20447;-67
2021/03/29 05:14:12;;;;;;;9.83;7.50;;;;;;;;;;5038457;28;20463;-68
2021/03/29 05:16:39;;;;;;;10.60;7.50;;;;;;;;;;5045716;28;20443;-67
2021/03/29 05:19:06;;;;;;;7.57;6.77;;;;;;;;;;5054679;28;20483;-68
2021/03/29 05:21:32;;;;;;;10.03;6.73;;;;;;;;;;5065037;22;20583;-62
2021/03/29 05:23:59;;;;;;;8.40;6.50;;;;;;;;;;5046832;28;20451;-63
2021/03/29 05:26:25;;;;;;;9.70;6.43;;;;;;;;;;5055744;28;20465;-63
2021/03/29 05:28:53;;;;;;;12.93;7.13;;;;;;;;;;5053857;28;20459;-62
2021/03/29 05:31:20;;;;;;;7.90;6.30;;;;;;;;;;5055287;28;20478;-62
2021/03/29 05:33:46;;;;;;;10.40;7.27;;;;;;;;;;5054024;28;21029;-62
2021/03/29 05:36:14;;;;;;;5.60;4.27;;;;;;;;;;5054295;28;20957;-62
2021/03/29 05:38:41;;;;;;;6.03;3.40;;;;;;;;;;5054559;28;20455;-61
2021/03/29 05:41:07;;;;;;;5.57;3.17;;;;;;;;;;5054998;28;20493;-60
2021/03/29 05:43:35;;;;;;;5.33;3.73;;;;;;;;;;5054542;28;20530;-60
2021/03/29 05:46:02;;;;;;;5.60;3.43;;;;;;;;;;5054968;28;20447;-60
2021/03/29 05:48:29;;;;;;;5.30;3.97;;;;;;;;;;5054723;28;20965;-60
2021/03/29 05:50:55;;;;;;;4.30;3.43;;;;;;;;;;5054239;28;20503;-61
2021/03/29 05:53:22;;;;;;;5.27;3.40;;;;;;;;;;5055077;28;20501;-60
2021/03/29 05:55:50;;;;;;;4.50;3.53;;;;;;;;;;5053969;28;20456;-61
2021/03/29 06:01:14;;;;;;;6.50;3.10;;;;;;;;;;5012395;28;20474;-60
2021/03/29 06:03:41;;;;;;;6.03;2.53;;;;;;;;;;5043953;28;20955;-61
2021/03/29 06:06:20;;;;;;;5.77;2.97;;;;;;;;;;5053979;28;20451;-60
2021/03/29 06:08:48;;;;;;;7.27;3.07;;;;;;;;;;5041938;28;21005;-61
2021/03/29 06:11:22;;;;;;;4.73;2.90;;;;;;;;;;5033980;28;20899;-60
2021/03/29 06:13:48;;;;;;;5.90;2.50;;;;;;;;;;5047336;28;20456;-60
2021/03/29 06:16:16;;;;;;;5.77;2.80;;;;;;;;;;5052990;28;20878;-60
2021/03/29 06:18:50;;;;;;;7.30;3.73;;;;;;;;;;5053867;28;20601;-61
2021/03/29 06:21:16;;;;;;;6.27;3.03;;;;;;;;;;5048872;28;20583;-61
2021/03/29 06:23:56;;;;;;;4.53;2.60;;;;;;;;;;5051230;28;20538;-61
2021/03/29 06:26:25;;;;;;;5.73;3.30;;;;;;;;;;5053538;28;20815;-61
2021/03/29 06:28:52;;;;;;;5.00;2.90;;;;;;;;;;5054181;28;20530;-60
2021/03/29 06:31:24;;;;;;;5.17;2.63;;;;;;;;;;5053813;28;20513;-61
2021/03/29 06:33:51;;;;;;;6.40;2.97;;;;;;;;;;5053774;28;20479;-61
2021/03/29 06:36:34;;;;;;;5.10;2.80;;;;;;;;;;5053988;28;20530;-60
2021/03/29 06:39:11;;;;;;;9.63;3.40;;;;;;;;;;5052272;28;20812;-61
2021/03/29 06:41:38;;;;;;;6.03;3.33;;;;;;;;;;5041331;28;20525;-61
2021/03/29 06:44:06;;;;;;;8.73;4.17;;;;;;;;;;5033877;28;20445;-62
2021/03/29 06:46:33;;;;;;;11.47;4.10;;;;;;;;;;5033585;28;20526;-63
2021/03/29 06:49:00;;;;;;;6.83;5.00;;;;;;;;;;5035291;28;20448;-62
2021/03/29 06:51:30;;;;;;;8.93;5.33;;;;;;;;;;5053812;28;20923;-64
2021/03/29 06:53:57;;;;;;;8.53;5.50;;;;;;;;;;5054614;28;20542;-64
2021/03/29 06:56:31;;;;;;;5.23;4.73;;;;;;;;;;5052107;28;20466;-64
2021/03/29 06:58:59;;;;;;;7.77;5.17;;;;;;;;;;5046807;28;20471;-64
2021/03/29 07:01:26;;;;;;;6.90;5.20;;;;;;;;;;5052396;28;20515;-63
2021/03/29 07:03:54;;;;;;;8.30;5.67;;;;;;;;;;5054444;28;20452;-64
2021/03/29 07:06:22;;;;;;;10.73;5.53;;;;;;;;;;5054121;28;20462;-64
2021/03/29 07:08:49;;;;;;;8.60;5.80;;;;;;;;;;5054369;28;20799;-64
2021/03/29 07:11:17;;;;;;;9.00;5.83;;;;;;;;;;5054660;28;20495;-64
2021/03/29 07:13:43;;;;;;;10.63;6.30;;;;;;;;;;5052593;28;20546;-64
2021/03/29 07:16:10;;;;;;;6.33;5.47;;;;;;;;;;5054109;28;20448;-64
2021/03/29 07:18:37;;;;;;;7.80;5.77;;;;;;;;;;5054457;28;20444;-65
2021/03/29 07:21:06;;;;;;;8.47;5.20;;;;;;;;;;5053895;28;20495;-64
2021/03/29 07:23:33;;;;;;;8.07;5.93;;;;;;;;;;5054363;28;20498;-64
2021/03/29 07:26:00;;;;;;;8.70;6.53;;;;;;;;;;5052662;28;20452;-63
2021/03/29 07:28:28;;;;;;;10.63;6.07;;;;;;;;;;5054561;28;20857;-64
2021/03/29 07:30:59;;;;;;;10.80;6.33;;;;;;;;;;5052217;28;20507;-64
2021/03/29 07:33:26;;;;;;;9.30;5.80;;;;;;;;;;5054030;28;20510;-64
2021/03/29 07:35:54;;;;;;;9.30;5.70;;;;;;;;;;5053947;28;20649;-64
2021/03/29 07:38:22;;;;;;;7.27;5.60;;;;;;;;;;5054217;28;20448;-64
2021/03/29 07:40:50;;;;;;;8.57;6.03;;;;;;;;;;5053557;28;20484;-64
2021/03/29 07:43:17;;;;;;;7.70;5.40;;;;;;;;;;5053693;28;20483;-64
2021/03/29 07:45:51;;;;;;;8.10;5.53;;;;;;;;;;5051884;28;20456;-64
2021/03/29 07:48:32;;;;;;;8.07;5.53;;;;;;;;;;5053855;28;20883;-65
2021/03/29 07:50:59;;;;;;;6.40;5.80;;;;;;;;;;5053482;28;20459;-65
2021/03/29 07:53:40;;;;;;;8.80;6.20;;;;;;;;;;5053692;28;20451;-65
2021/03/29 07:56:07;;;;;;;10.00;6.60;;;;;;;;;;5053568;28;20470;-64
2021/03/29 07:58:43;;;;;;;6.87;5.77;;;;;;;;;;5053810;28;20810;-64
2021/03/29 08:01:11;;;;;;;10.43;5.73;;;;;;;;;;5044382;28;20493;-64
2021/03/29 08:04:02;;;;;;;9.63;5.90;;;;;;;;;;5049670;28;20475;-64
2021/03/29 08:06:38;;;;;;;6.50;5.70;;;;;;;;;;5045760;28;20950;-64
2021/03/29 08:09:06;;;;;;;8.03;5.93;;;;;;;;;;5051038;28;20861;-64
2021/03/29 08:11:51;;;;;;;6.17;5.20;;;;;;;;;;5043903;28;20564;-64
2021/03/29 08:14:28;;;;;;;6.10;5.43;;;;;;;;;;5052210;28;20537;-64
2021/03/29 08:16:55;;;;;;;6.57;5.80;;;;;;;;;;5051886;28;20530;-64
2021/03/29 08:19:24;;;;;;;6.03;5.40;;;;;;;;;;5052003;28;20490;-64
2021/03/29 08:21:52;;;;;;;9.93;5.93;;;;;;;;;;5046857;28;20491;-64
2021/03/29 08:24:25;;;;;;;7.47;6.17;;;;;;;;;;5050241;28;20452;-64
2021/03/29 08:26:52;;;;;;;8.77;5.83;;;;;;;;;;5052533;28;20933;-64
2021/03/29 08:29:29;;;;;;;9.00;5.97;;;;;;;;;;5052883;28;20538;-64
2021/03/29 08:32:08;;;;;;;6.33;5.60;;;;;;;;;;5052279;28;20482;-64
2021/03/29 08:34:35;;;;;;;6.93;5.30;;;;;;;;;;5044976;28;20459;-64
2021/03/29 08:37:03;;;;;;;6.60;5.40;;;;;;;;;;5043263;28;20468;-64
2021/03/29 08:39:34;;;;;;;8.50;5.73;;;;;;;;;;5054500;28;20450;-64
2021/03/29 08:42:01;;;;;;;7.70;6.10;;;;;;;;;;5061959;28;20556;-65
2021/03/29 08:44:28;;;;;;;10.93;6.50;;;;;;;;;;5051507;28;20530;-65
2021/03/29 08:46:56;;;;;;;8.53;5.63;;;;;;;;;;5050768;28;20534;-65
2021/03/29 08:49:22;;;;;;;6.13;5.53;;;;;;;;;;5048746;28;20495;-63
2021/03/29 08:51:50;;;;;;;8.90;6.17;;;;;;;;;;5050316;28;20474;-65
2021/03/29 08:54:17;;;;;;;9.93;6.23;;;;;;;;;;5050235;28;20551;-65
2021/03/29 08:56:45;;;;;;;6.53;5.30;;;;;;;;;;5050999;28;20452;-65
2021/03/29 08:59:12;;;;;;;9.43;5.90;;;;;;;;;;5050502;28;20470;-63
2021/03/29 09:01:40;;;;;;;9.40;5.93;;;;;;;;;;5051159;28;20571;-65
2021/03/29 09:04:07;;;;;;;8.20;5.53;;;;;;;;;;5040955;28;20465;-63
2021/03/29 09:06:34;;;;;;;8.37;5.67;;;;;;;;;;5053077;28;20534;-62
2021/03/29 09:09:10;;;;;;;7.60;5.77;;;;;;;;;;5052434;28;20452;-63
2021/03/29 09:11:39;;;;;;;7.13;5.50;;;;;;;;;;5053417;28;20470;-64
2021/03/29 09:14:06;;;;;;;8.93;6.00;;;;;;;;;;5052265;28;20464;-64
2021/03/29 09:16:33;;;;;;;7.70;5.60;;;;;;;;;;5052317;28;20535;-64
2021/03/29 09:19:10;;;;;;;7.87;6.30;;;;;;;;;;5043592;28;20437;-64
2021/03/29 09:21:38;;;;;;;6.93;5.60;;;;;;;;;;5052029;28;20487;-63
2021/03/29 09:24:14;;;;;;;9.00;6.60;;;;;;;;;;5054537;28;20483;-64
2021/03/29 09:26:41;;;;;;;5.67;5.13;;;;;;;;;;5039760;28;20539;-64
2021/03/29 09:29:20;;;;;;;8.43;6.00;;;;;;;;;;5050907;28;20450;-64
2021/03/29 09:31:47;;;;;;;8.87;5.73;;;;;;;;;;5056181;28;20521;-65
2021/03/29 09:34:14;;;;;;;8.47;5.53;;;;;;;;;;5055321;28;20877;-66
2021/03/29 09:36:41;;;;;;;7.20;4.87;;;;;;;;;;5052100;28;20454;-67
2021/03/29 09:39:14;;;;;;;9.23;5.80;;;;;;;;;;5057020;28;20526;-67
2021/03/29 09:41:49;;;;;;;10.83;5.60;;;;;;;;;;5049713;28;20498;-69
2021/03/29 09:44:15;;;;;;;6.80;5.10;;;;;;;;;;5046003;28;20885;-65
2021/03/29 09:46:43;;;;;;;8.13;5.03;;;;;;;;;;5045945;28;20539;-70
2021/03/29 09:49:10;;;;;;;7.47;5.20;;;;;;;;;;5053647;28;20981;-70
2021/03/29 09:51:38;;;;;;;9.60;5.40;;;;;;;;;;5052957;28;20554;-68
2021/03/29 09:54:19;;;;;;;7.80;5.10;;;;;;;;;;5051730;28;20567;-67
2021/03/29 09:56:46;;;;;;;8.20;5.50;;;;;;;;;;5047057;28;20491;-65
2021/03/29 09:59:13;;;;;;;7.53;4.90;;;;;;;;;;5055650;28;20455;-65
2021/03/29 10:01:44;;;;;;;7.40;5.13;;;;;;;;;;5050914;28;20574;-63
2021/03/29 10:04:14;;;;;;;7.03;5.80;;;;;;;;;;5052187;28;20444;-62
2021/03/29 10:06:50;;;;;;;6.70;5.23;;;;;;;;;;5053780;28;20451;-64
2021/03/29 10:09:28;;;;;;;5.17;3.63;;;;;;;;;;5053556;28;20903;-64
2021/03/29 10:11:55;;;;;;;6.33;2.03;;;;;;;;;;5055068;28;20475;-64
2021/03/29 10:14:22;;;;;;;2.40;1.50;;;;;;;;;;5040892;28;20452;-62
2021/03/29 10:16:50;;;;;;;6.17;4.47;;;;;;;;;;5034911;28;20452;-60
2021/03/29 10:19:18;;;;;;;7.30;3.70;;;;;;;;;;5048529;28;20464;-61
2021/03/29 10:22:05;;;;;;;5.33;2.70;;;;;;;;;;5052042;28;21024;-62
2021/03/29 10:24:32;;;;;;;5.87;3.50;;;;;;;;;;5052976;28;20460;-62
2021/03/29 10:26:59;;;;;;;5.33;3.00;;;;;;;;;;5052251;28;20463;-62
2021/03/29 10:29:35;;;;;;;6.23;2.63;;;;;;;;;;5047826;28;20475;-62
2021/03/29 10:32:03;;;;;;;3.43;2.90;;;;;;;;;;5050328;28;20506;-62
2021/03/29 10:34:29;;;;;;;6.57;3.23;;;;;;;;;;5054532;28;20452;-62
2021/03/29 10:36:56;;;;;;;4.63;3.03;;;;;;;;;;5040636;28;20467;-62
2021/03/29 10:39:23;;;;;;;4.40;2.93;;;;;;;;;;5054335;28;20529;-62
2021/03/29 10:41:49;;;;;;;7.50;3.50;;;;;;;;;;5055697;28;20491;-62
2021/03/29 10:44:16;;;;;;;5.17;2.77;;;;;;;;;;5057885;28;20528;-62
2021/03/29 10:46:43;;;;;;;4.03;2.23;;;;;;;;;;5053779;28;20566;-61
2021/03/29 10:49:11;;;;;;;5.70;3.00;;;;;;;;;;5053962;28;20800;-62
2021/03/29 10:51:38;;;;;;;8.63;3.90;;;;;;;;;;5054421;28;20567;-62
2021/03/29 10:54:05;;;;;;;7.63;4.87;;;;;;;;;;5055976;28;20931;-62
2021/03/29 10:56:32;;;;;;;6.77;4.77;;;;;;;;;;5053074;28;20497;-62
2021/03/29 10:58:58;;;;;;;5.13;2.87;;;;;;;;;;5054145;28;20534;-62
2021/03/29 11:01:25;;;;;;;4.20;2.20;;;;;;;;;;5049934;28;20570;-64
2021/03/29 11:03:52;;;;;;;5.30;2.83;;;;;;;;;;5052289;28;20544;-62
2021/03/29 11:06:19;;;;;;;4.87;2.40;;;;;;;;;;5052377;28;20458;-64
2021/03/29 11:08:46;;;;;;;6.80;3.57;;;;;;;;;;5052943;28;20490;-63
2021/03/29 11:11:12;;;;;;;4.27;3.07;;;;;;;;;;5053055;28;20559;-64
2021/03/29 11:13:39;;;;;;;6.77;2.97;;;;;;;;;;5053925;28;20479;-63
2021/03/29 11:16:11;;;;;;;3.70;2.13;;;;;;;;;;5051068;28;20605;-64
2021/03/29 11:18:38;;;;;;;5.93;3.47;;;;;;;;;;5051549;28;20471;-63
2021/03/29 11:21:04;;;;;;;8.53;1.93;;;;;;;;;;5048085;28;20483;-63
2021/03/29 11:23:32;;;;;;;5.10;2.63;;;;;;;;;;5053908;28;20506;-64
2021/03/29 11:25:59;;;;;;;2.60;1.60;;;;;;;;;;5075340;22;20499;-68
2021/03/29 11:28:25;;;;;;;4.90;2.60;;;;;;;;;;5042269;28;20460;-68
2021/03/29 11:30:52;;;;;;;5.10;2.80;;;;;;;;;;5060265;28;20443;-68
2021/03/29 11:33:20;;;;;;;4.90;2.70;;;;;;;;;;5048171;28;20487;-68
2021/03/29 11:35:47;;;;;;;5.00;3.30;;;;;;;;;;5049258;28;20469;-67
2021/03/29 11:38:14;;;;;;;6.90;4.20;;;;;;;;;;5030940;28;20807;-67
2021/03/29 11:40:41;;;;;;;3.33;2.10;;;;;;;;;;5034703;28;20487;-67
2021/03/29 11:43:08;;;;;;;4.80;2.10;;;;;;;;;;5034883;28;21065;-69
2021/03/29 11:45:35;;;;;;;2.63;1.93;;;;;;;;;;5034338;28;20444;-67
2021/03/29 11:48:01;;;;;;;4.50;2.40;;;;;;;;;;5032178;28;20452;-67
2021/03/29 11:50:28;;;;;;;8.10;3.20;;;;;;;;;;5031698;28;20547;-67
2021/03/29 11:52:55;;;;;;;4.03;2.33;;;;;;;;;;5022088;28;20449;-70
2021/03/29 11:55:21;;;;;;;4.27;2.50;;;;;;;;;;5031600;28;20850;-69
2021/03/29 11:57:49;;;;;;;4.73;2.27;;;;;;;;;;5038943;28;20495;-68
2021/03/29 12:00:22;;;;;;;4.13;2.40;;;;;;;;;;5030492;28;20515;-69
2021/03/29 12:02:56;;;;;;;3.70;2.40;;;;;;;;;;5031624;28;20460;-67
2021/03/29 12:05:25;;;;;;;7.20;3.07;;;;;;;;;;5032491;28;20457;-69
2021/03/29 12:08:08;;;;;;;5.43;2.90;;;;;;;;;;5032058;28;20504;-69
2021/03/29 12:13:20;;;;;;;6.00;5.40;;;;;;;;;;5031075;28;20451;-67
2021/03/29 12:15:49;;;;;;;8.27;6.23;;;;;;;;;;5031686;28;20567;-66
2021/03/29 12:18:20;;;;;;;7.13;5.17;;;;;;;;;;5017773;28;20539;-67
2021/03/29 12:20:47;;;;;;;5.83;5.13;;;;;;;;;;5032383;28;20479;-68
2021/03/29 12:23:15;;;;;;;5.63;3.50;;;;;;;;;;5032064;28;20502;-69
2021/03/29 12:25:42;;;;;;;4.07;2.40;;;;;;;;;;5031575;28;20821;-66
2021/03/29 12:28:11;;;;;;;7.40;3.70;;;;;;;;;;5031971;28;20921;-68
2021/03/29 12:30:39;;;;;;;4.80;2.70;;;;;;;;;;5031912;28;21127;-69
2021/03/29 12:33:06;;;;;;;6.60;2.83;;;;;;;;;;5031852;28;20919;-67
2021/03/29 12:35:33;;;;;;;4.80;3.37;;;;;;;;;;5031753;28;20453;-67
2021/03/29 12:38:00;;;;;;;4.80;3.43;;;;;;;;;;5032203;28;20452;-67
2021/03/29 12:40:30;;;;;;;3.07;2.07;;;;;;;;;;5031485;28;20480;-67
2021/03/29 12:43:07;;;;;;;5.23;3.40;;;;;;;;;;5032388;28;20453;-67
2021/03/29 12:45:35;;;;;;;3.43;2.40;;;;;;;;;;5031373;28;20543;-67
2021/03/29 12:48:06;;;;;;;3.90;2.57;;;;;;;;;;5032099;28;20543;-67
2021/03/29 12:50:34;;;;;;;3.73;2.37;;;;;;;;;;5029508;28;20465;-67
2021/03/29 12:53:01;;;;;;;3.53;3.17;;;;;;;;;;5031350;28;20452;-69
2021/03/29 12:55:29;;;;;;;6.03;2.80;;;;;;;;;;5031214;28;20510;-70
2021/03/29 12:57:57;;;;;;;7.33;5.17;;;;;;;;;;5031776;28;20448;-67
2021/03/29 13:00:25;;;;;;;5.70;4.40;;;;;;;;;;5031788;28;20587;-67
2021/03/29 13:02:56;;;;;;;3.33;2.93;;;;;;;;;;5031231;28;20448;-67
2021/03/29 13:05:32;;;;;;;3.37;1.77;;;;;;;;;;5031692;28;20487;-67
2021/03/29 13:08:03;;;;;;;2.90;1.73;;;;;;;;;;5012685;28;20519;-67
2021/03/29 13:13:27;;;;;;;3.30;2.60;;;;;;;;;;4970532;28;20440;-67
2021/03/29 13:15:54;;;;;;;4.63;3.10;;;;;;;;;;5015989;28;20515;-67
2021/03/29 13:18:20;;;;;;;4.90;3.00;;;;;;;;;;5032111;28;20445;-67
2021/03/29 13:20:48;;;;;;;6.00;2.37;;;;;;;;;;5030769;28;20532;-67
2021/03/29 13:23:15;;;;;;;9.43;5.77;;;;;;;;;;5030501;28;20462;-66
2021/03/29 13:25:41;;;;;;;6.93;5.40;;;;;;;;;;5030555;28;20529;-69
2021/03/29 13:28:08;;;;;;;5.50;4.87;;;;;;;;;;5032625;28;20452;-67
2021/03/29 13:30:35;;;;;;;6.97;5.37;;;;;;;;;;5034909;28;20448;-66
2021/03/29 13:33:03;;;;;;;7.03;5.60;;;;;;;;;;5031767;28;20946;-66
2021/03/29 13:35:30;;;;;;;8.80;6.20;;;;;;;;;;5037684;28;20456;-66
2021/03/29 13:37:59;;;;;;;7.80;6.00;;;;;;;;;;5043258;28;20806;-67
2021/03/29 13:40:25;;;;;;;7.77;5.80;;;;;;;;;;5033772;28;20496;-66
2021/03/29 13:42:52;;;;;;;8.40;6.20;;;;;;;;;;5036039;28;20543;-67
2021/03/29 13:45:20;;;;;;;8.33;6.00;;;;;;;;;;5034966;28;20460;-67
2021/03/29 13:47:46;;;;;;;9.40;6.30;;;;;;;;;;5035680;28;20479;-67
2021/03/29 13:50:15;;;;;;;7.40;5.70;;;;;;;;;;5034648;28;20475;-67
2021/03/29 13:52:41;;;;;;;8.13;6.20;;;;;;;;;;5035715;28;20449;-67
2021/03/29 13:55:10;;;;;;;6.87;6.10;;;;;;;;;;5034423;28;20464;-65
2021/03/29 13:57:37;;;;;;;8.40;6.60;;;;;;;;;;5035459;28;20618;-70
2021/03/29 14:00:05;;;;;;;7.60;6.23;;;;;;;;;;5034093;28;20495;-68
2021/03/29 14:02:32;;;;;;;8.60;6.50;;;;;;;;;;5034013;28;20449;-68
2021/03/29 14:04:59;;;;;;;7.30;6.00;;;;;;;;;;5034896;28;20502;-68
2021/03/29 14:07:25;;;;;;;7.80;6.30;;;;;;;;;;5032650;28;20497;-68
2021/03/29 14:09:52;;;;;;;7.07;5.83;;;;;;;;;;5034893;28;20448;-66
2021/03/29 14:12:24;;;;;;;7.60;5.70;;;;;;;;;;5031497;28;20492;-67
2021/03/29 14:14:50;;;;;;;6.67;5.90;;;;;;;;;;5034526;28;20448;-67
2021/03/29 14:17:17;;;;;;;9.17;6.20;;;;;;;;;;5031778;28;20575;-67
2021/03/29 14:19:43;;;;;;;7.63;6.40;;;;;;;;;;5034551;28;20543;-67
2021/03/29 14:22:10;;;;;;;7.97;6.73;;;;;;;;;;5033398;28;20488;-66
2021/03/29 14:24:37;;;;;;;6.93;5.90;;;;;;;;;;5033840;28;20817;-67
2021/03/29 14:27:03;;;;;;;7.30;5.63;;;;;;;;;;5030594;28;20503;-67
2021/03/29 14:29:41;;;;;;;6.63;5.90;;;;;;;;;;5034517;28;20536;-66
2021/03/29 14:32:10;;;;;;;6.30;5.60;;;;;;;;;;5033394;28;20456;-67
2021/03/29 14:34:38;;;;;;;7.23;5.70;;;;;;;;;;5031419;28;20464;-67
2021/03/29 14:37:13;;;;;;;8.70;5.43;;;;;;;;;;5014733;28;20804;-68
2021/03/29 14:39:47;;;;;;;8.10;6.03;;;;;;;;;;5033377;28;20460;-68
2021/03/29 14:42:18;;;;;;;8.30;6.00;;;;;;;;;;5029956;28;20488;-67
2021/03/29 14:44:46;;;;;;;7.30;5.80;;;;;;;;;;5031977;28;20467;-68
2021/03/29 14:47:13;;;;;;;9.30;6.40;;;;;;;;;;5029066;28;20537;-66
2021/03/29 14:49:41;;;;;;;10.17;6.30;;;;;;;;;;5027707;28;20867;-68
2021/03/29 14:52:08;;;;;;;2.90;1.80;;;;;;;;;;5034531;28;20461;-67
2021/03/29 14:54:35;;;;;;;4.63;2.47;;;;;;;;;;5034938;28;20447;-67
2021/03/29 14:57:02;;;;;;;3.33;3.00;;;;;;;;;;5029889;28;20605;-67